Time;durP1;ratioP1;P1;durP2;ratioP2;P2;SDS_P1;SDS_P2;PMS_P1;PMS_P2;Temp;Humidity;BMP_temperature;BMP_pressure;BME280_temperature;BME280_humidity;BME280_pressure;Samples;Min_cycle;Max_cycle;Signal;HPM_P1;HPM_P2
2023/09/26 00:01:45;;;;;;;;;;;;;;;;;;6182038;23;19912;-93
2023/09/26 00:04:11;;;;;;;;;;;;;;;;;;6155676;23;19908;-93
2023/09/26 00:06:38;;;;;;;;;;;;;;;;;;6155208;23;19912;-92
2023/09/26 00:09:05;;;;;;;;;;;;;;;;;;6155361;23;19911;-92
2023/09/26 00:11:34;;;;;;;;;;;;;;;;;;6156181;23;20335;-93
2023/09/26 00:14:00;;;;;;;;;;;;;;;;;;6153125;23;19908;-93
2023/09/26 00:16:25;;;;;;;;;;;;;;;;;;6154513;23;19908;-93
2023/09/26 00:18:51;;;;;;;;;;;;;;;;;;6154840;23;19904;-94
2023/09/26 00:21:17;;;;;;;;;;;;;;;;;;6153973;23;19966;-94
2023/09/26 00:23:43;;;;;;;;;;;;;;;;;;6154695;23;19908;-93
2023/09/26 00:26:09;;;;;;;;;;;;;;;;;;6154113;23;19919;-92
2023/09/26 00:28:37;;;;;;;;;;;;;;;;;;6154904;23;19914;-93
2023/09/26 00:31:04;;;;;;;;;;;;;;;;;;6155231;23;19917;-94
2023/09/26 00:33:30;;;;;;;;;;;;;;;;;;6154150;23;19908;-95
2023/09/26 00:35:58;;;;;;;;;;;;;;;;;;6156212;23;19922;-94
2023/09/26 00:38:23;;;;;;;;;;;;;;;;;;6155318;23;19966;-94
2023/09/26 00:40:50;;;;;;;;;;;;;;;;;;6155370;23;20166;-93
2023/09/26 00:43:15;;;;;;;;;;;;;;;;;;6155240;23;19991;-93
2023/09/26 00:45:50;;;;;;;;;;;;;;;;;;6154701;23;22297;-94
2023/09/26 00:48:19;;;;;;;;;;;;;;;;;;6155877;23;19919;-92
2023/09/26 00:50:46;;;;;;;;;;;;;;;;;;6151449;23;20335;-93
2023/09/26 00:53:11;;;;;;;;;;;;;;;;;;6154185;23;19908;-92
2023/09/26 00:55:37;;;;;;;;;;;;;;;;;;6154555;23;20242;-94
2023/09/26 00:58:10;;;;;;;;;;;;;;;;;;6160108;23;19923;-91
2023/09/26 01:00:36;;;;;;;;;;;;;;;;;;6152801;23;19936;-91
2023/09/26 01:03:02;;;;;;;;;;;;;;;;;;6153484;23;20362;-91
2023/09/26 01:05:28;;;;;;;;;;;;;;;;;;6154663;23;19924;-92
2023/09/26 01:07:54;;;;;;;;;;;;;;;;;;6155893;23;19904;-91
2023/09/26 01:10:19;;;;;;;;;;;;;;;;;;6155562;23;19909;-92
2023/09/26 01:12:45;;;;;;;;;;;;;;;;;;6153477;23;20223;-91
2023/09/26 01:15:11;;;;;;;;;;;;;;;;;;6179991;23;19983;-91
2023/09/26 01:17:37;;;;;;;;;;;;;;;;;;6152810;23;19947;-91
2023/09/26 01:20:16;;;;;;;;;;;;;;;;;;6153756;23;19911;-91
2023/09/26 01:22:41;;;;;;;;;;;;;;;;;;6153594;23;19947;-92
2023/09/26 01:25:08;;;;;;;;;;;;;;;;;;6155068;23;19909;-92
2023/09/26 01:27:34;;;;;;;;;;;;;;;;;;6154797;23;20341;-91
2023/09/26 01:30:00;;;;;;;;;;;;;;;;;;6179945;23;19932;-91
2023/09/26 01:32:26;;;;;;;;;;;;;;;;;;6151896;23;20118;-91
2023/09/26 01:34:52;;;;;;;;;;;;;;;;;;6154470;23;19931;-91
2023/09/26 01:37:20;;;;;;;;;;;;;;;;;;6154456;23;19920;-90
2023/09/26 01:39:46;;;;;;;;;;;;;;;;;;6154439;23;19943;-92
2023/09/26 01:42:12;;;;;;;;;;;;;;;;;;6155012;23;19908;-90
2023/09/26 01:44:38;;;;;;;;;;;;;;;;;;6154299;23;19948;-91
2023/09/26 01:47:04;;;;;;;;;;;;;;;;;;6152949;23;19908;-91
2023/09/26 01:49:30;;;;;;;;;;;;;;;;;;6152429;23;19908;-91
2023/09/26 01:51:56;;;;;;;;;;;;;;;;;;6153505;23;20342;-90
2023/09/26 01:54:22;;;;;;;;;;;;;;;;;;6153747;23;19905;-91
2023/09/26 01:56:48;;;;;;;;;;;;;;;;;;6152960;23;19979;-91
2023/09/26 01:59:13;;;;;;;;;;;;;;;;;;6155637;23;19916;-90
2023/09/26 02:01:39;;;;;;;;;;;;;;;;;;6152155;23;19915;-90
2023/09/26 02:04:05;;;;;;;;;;;;;;;;;;6151351;23;19904;-91
2023/09/26 02:06:31;;;;;;;;;;;;;;;;;;6152440;23;19959;-91
2023/09/26 02:08:57;;;;;;;;;;;;;;;;;;6153267;23;19904;-93
2023/09/26 02:11:23;;;;;;;;;;;;;;;;;;6154452;23;19908;-93
2023/09/26 02:13:49;;;;;;;;;;;;;;;;;;6152862;23;19915;-93
2023/09/26 02:16:15;;;;;;;;;;;;;;;;;;6153826;23;20459;-93
2023/09/26 02:18:41;;;;;;;;;;;;;;;;;;6153186;23;19911;-93
2023/09/26 02:21:07;;;;;;;;;;;;;;;;;;6153247;23;19982;-93
2023/09/26 02:23:33;;;;;;;;;;;;;;;;;;6155771;23;19932;-94
2023/09/26 02:25:59;;;;;;;;;;;;;;;;;;6183913;23;19912;-92
2023/09/26 02:28:25;;;;;;;;;;;;;;;;;;6156804;23;20473;-93
2023/09/26 02:30:51;;;;;;;;;;;;;;;;;;6159514;23;19962;-93
2023/09/26 02:33:17;;;;;;;;;;;;;;;;;;6160381;23;20474;-92
2023/09/26 02:35:43;;;;;;;;;;;;;;;;;;6157728;23;19908;-92
2023/09/26 02:38:09;;;;;;;;;;;;;;;;;;6158649;23;19943;-92
2023/09/26 02:40:34;;;;;;;;;;;;;;;;;;6156613;23;19959;-93
2023/09/26 02:43:00;;;;;;;;;;;;;;;;;;6159097;23;19944;-92
2023/09/26 02:45:26;;;;;;;;;;;;;;;;;;6158603;23;19974;-92
2023/09/26 02:47:52;;;;;;;;;;;;;;;;;;6158112;23;20374;-92
2023/09/26 02:50:25;;;;;;;;;;;;;;;;;;6158462;23;19915;-92
2023/09/26 02:52:52;;;;;;;;;;;;;;;;;;6157848;23;19908;-93
2023/09/26 02:55:20;;;;;;;;;;;;;;;;;;6157972;23;19916;-92
2023/09/26 02:57:45;;;;;;;;;;;;;;;;;;6161267;22;19911;-92
2023/09/26 03:00:16;;;;;;;;;;;;;;;;;;6156947;23;19908;-92
2023/09/26 03:02:42;;;;;;;;;;;;;;;;;;6157477;23;20390;-92
2023/09/26 03:05:09;;;;;;;;;;;;;;;;;;6158176;23;19908;-92
2023/09/26 03:07:35;;;;;;;;;;;;;;;;;;6157641;23;19943;-92
2023/09/26 03:10:01;;;;;;;;;;;;;;;;;;6157665;23;19912;-92
2023/09/26 03:12:27;;;;;;;;;;;;;;;;;;6158012;23;19927;-92
2023/09/26 03:14:54;;;;;;;;;;;;;;;;;;6157694;23;19987;-91
2023/09/26 03:17:19;;;;;;;;;;;;;;;;;;6159538;23;20381;-92
2023/09/26 03:19:45;;;;;;;;;;;;;;;;;;6159610;23;19908;-93
2023/09/26 03:22:11;;;;;;;;;;;;;;;;;;6159592;23;19909;-93
2023/09/26 03:24:37;;;;;;;;;;;;;;;;;;6158079;23;19904;-93
2023/09/26 03:27:03;;;;;;;;;;;;;;;;;;6156310;23;19908;-93
2023/09/26 03:29:29;;;;;;;;;;;;;;;;;;6157817;23;19946;-92
2023/09/26 03:31:55;;;;;;;;;;;;;;;;;;6158653;23;19915;-94
2023/09/26 03:34:21;;;;;;;;;;;;;;;;;;6157661;23;19954;-93
2023/09/26 03:36:47;;;;;;;;;;;;;;;;;;6157106;23;20343;-91
2023/09/26 03:39:22;;;;;;;;;;;;;;;;;;6155453;23;19910;-93
2023/09/26 03:41:54;;;;;;;;;;;;;;;;;;6158424;23;20578;-92
2023/09/26 03:44:20;;;;;;;;;;;;;;;;;;6158515;23;19963;-94
2023/09/26 03:46:46;;;;;;;;;;;;;;;;;;6157281;23;19908;-94
2023/09/26 03:49:12;;;;;;;;;;;;;;;;;;6159721;23;19934;-94
2023/09/26 03:51:38;;;;;;;;;;;;;;;;;;6159052;23;19912;-93
2023/09/26 03:54:04;;;;;;;;;;;;;;;;;;6157570;23;19939;-93
2023/09/26 03:56:30;;;;;;;;;;;;;;;;;;6160247;23;19904;-93
2023/09/26 03:58:57;;;;;;;;;;;;;;;;;;6167865;23;19964;-93
2023/09/26 04:01:23;;;;;;;;;;;;;;;;;;6168168;23;19904;-93
2023/09/26 04:03:48;;;;;;;;;;;;;;;;;;6158173;23;20345;-93
2023/09/26 04:06:14;;;;;;;;;;;;;;;;;;6158919;23;19920;-92
2023/09/26 04:08:41;;;;;;;;;;;;;;;;;;6184663;23;20630;-94
2023/09/26 04:11:07;;;;;;;;;;;;;;;;;;6158281;23;19911;-93
2023/09/26 04:13:32;;;;;;;;;;;;;;;;;;6157904;23;19909;-93
2023/09/26 04:15:58;;;;;;;;;;;;;;;;;;6186066;23;19931;-93
2023/09/26 04:18:24;;;;;;;;;;;;;;;;;;6160158;23;20027;-92
2023/09/26 04:20:50;;;;;;;;;;;;;;;;;;6157839;23;19975;-93
2023/09/26 04:23:16;;;;;;;;;;;;;;;;;;6156933;23;19915;-93
2023/09/26 04:25:42;;;;;;;;;;;;;;;;;;6158430;23;20405;-94
2023/09/26 04:28:08;;;;;;;;;;;;;;;;;;6159156;23;19912;-93
2023/09/26 04:30:41;;;;;;;;;;;;;;;;;;6158153;23;19908;-92
2023/09/26 04:33:07;;;;;;;;;;;;;;;;;;6160409;23;19904;-94
2023/09/26 04:35:33;;;;;;;;;;;;;;;;;;6187394;23;19959;-93
2023/09/26 04:37:59;;;;;;;;;;;;;;;;;;6159940;23;19912;-91
2023/09/26 04:40:25;;;;;;;;;;;;;;;;;;6161056;23;19928;-91
2023/09/26 04:42:52;;;;;;;;;;;;;;;;;;6153879;23;19908;-89
2023/09/26 04:45:18;;;;;;;;;;;;;;;;;;6152579;23;19908;-90
2023/09/26 04:47:47;;;;;;;;;;;;;;;;;;6153873;23;19920;-90
2023/09/26 04:50:13;;;;;;;;;;;;;;;;;;6160532;23;19904;-93
2023/09/26 04:52:39;;;;;;;;;;;;;;;;;;6161612;23;19912;-92
2023/09/26 04:55:05;;;;;;;;;;;;;;;;;;6156673;23;19996;-93
2023/09/26 04:57:31;;;;;;;;;;;;;;;;;;6156910;23;20142;-91
2023/09/26 04:59:57;;;;;;;;;;;;;;;;;;6162136;23;19951;-92
2023/09/26 05:02:23;;;;;;;;;;;;;;;;;;6187213;23;19955;-92
2023/09/26 05:04:49;;;;;;;;;;;;;;;;;;6158037;23;19919;-93
2023/09/26 05:07:15;;;;;;;;;;;;;;;;;;6157055;23;19916;-90
2023/09/26 05:09:41;;;;;;;;;;;;;;;;;;6152593;23;20390;-90
2023/09/26 05:12:07;;;;;;;;;;;;;;;;;;6152667;23;19991;-90
2023/09/26 05:14:33;;;;;;;;;;;;;;;;;;6150445;23;19951;-89
2023/09/26 05:16:59;;;;;;;;;;;;;;;;;;6151949;23;19908;-89
2023/09/26 05:19:24;;;;;;;;;;;;;;;;;;6154018;23;19938;-89
2023/09/26 05:21:50;;;;;;;;;;;;;;;;;;6154006;23;19905;-89
2023/09/26 05:24:17;;;;;;;;;;;;;;;;;;6153896;23;19988;-89
2023/09/26 05:26:43;;;;;;;;;;;;;;;;;;6153637;23;19999;-90
2023/09/26 05:29:09;;;;;;;;;;;;;;;;;;6152767;23;19948;-89
2023/09/26 05:31:34;;;;;;;;;;;;;;;;;;6179950;23;19938;-90
2023/09/26 05:34:00;;;;;;;;;;;;;;;;;;6153974;23;20003;-89
2023/09/26 05:36:26;;;;;;;;;;;;;;;;;;6152900;23;19957;-89
2023/09/26 05:38:52;;;;;;;;;;;;;;;;;;6153596;23;19978;-89
2023/09/26 05:41:18;;;;;;;;;;;;;;;;;;6180518;23;20258;-90
2023/09/26 05:43:47;;;;;;;;;;;;;;;;;;6153484;23;19947;-90
2023/09/26 05:46:13;;;;;;;;;;;;;;;;;;6154007;23;19936;-89
2023/09/26 05:48:40;;;;;;;;;;;;;;;;;;6152879;23;19908;-90
2023/09/26 05:51:05;;;;;;;;;;;;;;;;;;6155823;23;19916;-89
2023/09/26 05:53:31;;;;;;;;;;;;;;;;;;6154208;23;19960;-89
2023/09/26 05:55:58;;;;;;;;;;;;;;;;;;6155229;23;20031;-90
2023/09/26 05:58:24;;;;;;;;;;;;;;;;;;6156510;23;19915;-90
2023/09/26 06:00:50;;;;;;;;;;;;;;;;;;6154500;23;19908;-89
2023/09/26 06:03:16;;;;;;;;;;;;;;;;;;6154601;23;20327;-90
2023/09/26 06:05:42;;;;;;;;;;;;;;;;;;6154473;23;19912;-89
2023/09/26 06:08:08;;;;;;;;;;;;;;;;;;6154559;23;19912;-90
2023/09/26 06:10:34;;;;;;;;;;;;;;;;;;6156817;23;19904;-90
2023/09/26 06:13:00;;;;;;;;;;;;;;;;;;6154896;23;19924;-90
2023/09/26 06:15:26;;;;;;;;;;;;;;;;;;6155357;23;19986;-89
2023/09/26 06:17:57;;;;;;;;;;;;;;;;;;6157124;23;19940;-90
2023/09/26 06:20:23;;;;;;;;;;;;;;;;;;6156277;23;19983;-90
2023/09/26 06:22:49;;;;;;;;;;;;;;;;;;6157424;23;19955;-89
2023/09/26 06:25:15;;;;;;;;;;;;;;;;;;6156359;23;19905;-90
2023/09/26 06:27:41;;;;;;;;;;;;;;;;;;6156780;23;20247;-90
2023/09/26 06:30:06;;;;;;;;;;;;;;;;;;6155963;23;19909;-90
2023/09/26 06:32:32;;;;;;;;;;;;;;;;;;6157294;23;20245;-90
2023/09/26 06:34:59;;;;;;;;;;;;;;;;;;6181820;23;19912;-90
2023/09/26 06:37:25;;;;;;;;;;;;;;;;;;6181909;23;19904;-90
2023/09/26 06:39:51;;;;;;;;;;;;;;;;;;6156268;23;19935;-90
2023/09/26 06:42:17;;;;;;;;;;;;;;;;;;6156608;23;20407;-90
2023/09/26 06:44:43;;;;;;;;;;;;;;;;;;6154447;23;19915;-90
2023/09/26 06:47:10;;;;;;;;;;;;;;;;;;6156164;23;19916;-89
2023/09/26 06:49:36;;;;;;;;;;;;;;;;;;6156227;23;19970;-90
2023/09/26 06:52:02;;;;;;;;;;;;;;;;;;6155635;23;20414;-89
2023/09/26 06:54:28;;;;;;;;;;;;;;;;;;6155653;23;19940;-89
2023/09/26 06:56:54;;;;;;;;;;;;;;;;;;6156454;23;19909;-90
2023/09/26 06:59:20;;;;;;;;;;;;;;;;;;6158781;23;19991;-90
2023/09/26 07:01:46;;;;;;;;;;;;;;;;;;6154658;23;19904;-90
2023/09/26 07:04:14;;;;;;;;;;;;;;;;;;6155006;23;19939;-90
2023/09/26 07:06:40;;;;;;;;;;;;;;;;;;6154753;23;19923;-89
2023/09/26 07:09:07;;;;;;;;;;;;;;;;;;6154095;23;20335;-90
2023/09/26 07:11:33;;;;;;;;;;;;;;;;;;6181762;23;19908;-90
2023/09/26 07:13:59;;;;;;;;;;;;;;;;;;6153674;23;19905;-89
2023/09/26 07:16:25;;;;;;;;;;;;;;;;;;6154121;23;19905;-89
2023/09/26 07:18:51;;;;;;;;;;;;;;;;;;6155561;23;19904;-89
2023/09/26 07:21:17;;;;;;;;;;;;;;;;;;6154217;23;19905;-90
2023/09/26 07:23:43;;;;;;;;;;;;;;;;;;6154357;23;19912;-89
2023/09/26 07:26:09;;;;;;;;;;;;;;;;;;6153968;23;19918;-91
2023/09/26 07:28:35;;;;;;;;;;;;;;;;;;6155217;23;19913;-90
2023/09/26 07:31:04;;;;;;;;;;;;;;;;;;6154843;23;20405;-90
2023/09/26 07:33:30;;;;;;;;;;;;;;;;;;6155592;23;19904;-91
2023/09/26 07:35:56;;;;;;;;;;;;;;;;;;6155179;23;19909;-90
2023/09/26 07:38:22;;;;;;;;;;;;;;;;;;6155894;23;20334;-90
2023/09/26 07:40:53;;;;;;;;;;;;;;;;;;6155397;23;19908;-91
2023/09/26 07:43:19;;;;;;;;;;;;;;;;;;6154830;23;19908;-90
2023/09/26 07:45:45;;;;;;;;;;;;;;;;;;6155404;23;20251;-90
2023/09/26 07:48:11;;;;;;;;;;;;;;;;;;6154963;23;19933;-90
2023/09/26 07:50:37;;;;;;;;;;;;;;;;;;6155063;23;20517;-90
2023/09/26 07:53:03;;;;;;;;;;;;;;;;;;6155171;23;19915;-90
2023/09/26 07:55:29;;;;;;;;;;;;;;;;;;6155531;23;19908;-90
2023/09/26 07:57:58;;;;;;;;;;;;;;;;;;6154760;23;20330;-90
2023/09/26 08:00:24;;;;;;;;;;;;;;;;;;6184815;22;19963;-90
2023/09/26 08:02:50;;;;;;;;;;;;;;;;;;6181085;23;20361;-90
2023/09/26 08:05:16;;;;;;;;;;;;;;;;;;6155431;23;19990;-89
2023/09/26 08:07:42;;;;;;;;;;;;;;;;;;6180834;23;20002;-90
2023/09/26 08:10:09;;;;;;;;;;;;;;;;;;6181575;23;19912;-90
2023/09/26 08:12:34;;;;;;;;;;;;;;;;;;6153113;23;19936;-90
2023/09/26 08:15:00;;;;;;;;;;;;;;;;;;6153355;23;19951;-89
2023/09/26 08:17:26;;;;;;;;;;;;;;;;;;6153875;23;19904;-90
2023/09/26 08:19:52;;;;;;;;;;;;;;;;;;6153036;23;19945;-89
2023/09/26 08:22:18;;;;;;;;;;;;;;;;;;6155061;23;20290;-89
2023/09/26 08:24:44;;;;;;;;;;;;;;;;;;6154180;23;19932;-89
2023/09/26 08:27:11;;;;;;;;;;;;;;;;;;6155324;23;20305;-89
2023/09/26 08:29:37;;;;;;;;;;;;;;;;;;6154317;23;19983;-89
2023/09/26 08:32:03;;;;;;;;;;;;;;;;;;6181112;23;20015;-89
2023/09/26 08:34:28;;;;;;;;;;;;;;;;;;6155359;23;19939;-90
2023/09/26 08:36:54;;;;;;;;;;;;;;;;;;6155172;23;19935;-91
2023/09/26 08:39:20;;;;;;;;;;;;;;;;;;6154631;23;19943;-90
2023/09/26 08:41:46;;;;;;;;;;;;;;;;;;6155145;23;19905;-90
2023/09/26 08:44:12;;;;;;;;;;;;;;;;;;6155381;23;19904;-90
2023/09/26 08:46:38;;;;;;;;;;;;;;;;;;6153825;23;20223;-89
2023/09/26 08:49:04;;;;;;;;;;;;;;;;;;6154172;23;19987;-90
2023/09/26 08:51:30;;;;;;;;;;;;;;;;;;6155319;23;19919;-90
2023/09/26 08:53:56;;;;;;;;;;;;;;;;;;6155783;23;19914;-89
2023/09/26 08:56:22;;;;;;;;;;;;;;;;;;6155747;23;19916;-90
2023/09/26 08:58:51;;;;;;;;;;;;;;;;;;6180988;23;19904;-90
2023/09/26 09:01:18;;;;;;;;;;;;;;;;;;6156220;23;19922;-90
2023/09/26 09:03:44;;;;;;;;;;;;;;;;;;6155397;23;20305;-90
2023/09/26 09:06:10;;;;;;;;;;;;;;;;;;6153979;23;19912;-90
2023/09/26 09:08:36;;;;;;;;;;;;;;;;;;6154435;23;19950;-90
2023/09/26 09:11:02;;;;;;;;;;;;;;;;;;6153795;23;19908;-90
2023/09/26 09:13:28;;;;;;;;;;;;;;;;;;6153327;23;20326;-89
2023/09/26 09:15:54;;;;;;;;;;;;;;;;;;6153933;23;19954;-90
2023/09/26 09:18:20;;;;;;;;;;;;;;;;;;6154113;23;19909;-89
2023/09/26 09:20:46;;;;;;;;;;;;;;;;;;6154070;23;19956;-89
2023/09/26 09:23:12;;;;;;;;;;;;;;;;;;6153513;23;19904;-89
2023/09/26 09:25:38;;;;;;;;;;;;;;;;;;6154037;23;19915;-90
2023/09/26 09:28:04;;;;;;;;;;;;;;;;;;6179733;23;19905;-90
2023/09/26 09:30:30;;;;;;;;;;;;;;;;;;6154072;23;19904;-90
2023/09/26 09:32:56;;;;;;;;;;;;;;;;;;6180393;23;19904;-90
2023/09/26 09:35:22;;;;;;;;;;;;;;;;;;6154917;23;20234;-90
2023/09/26 09:37:50;;;;;;;;;;;;;;;;;;6154100;23;19959;-90
2023/09/26 09:40:16;;;;;;;;;;;;;;;;;;6154103;23;19955;-90
2023/09/26 09:42:50;;;;;;;;;;;;;;;;;;6181553;23;19904;-90
2023/09/26 09:45:15;;;;;;;;;;;;;;;;;;6154985;23;19967;-90
2023/09/26 09:47:42;;;;;;;;;;;;;;;;;;6156598;23;19908;-90
2023/09/26 09:50:08;;;;;;;;;;;;;;;;;;6155991;23;19915;-91
2023/09/26 09:52:49;;;;;;;;;;;;;;;;;;6155129;23;19904;-90
2023/09/26 09:55:16;;;;;;;;;;;;;;;;;;6154881;23;20015;-91
2023/09/26 09:57:42;;;;;;;;;;;;;;;;;;6155950;23;19928;-90
2023/09/26 10:00:08;;;;;;;;;;;;;;;;;;6157009;23;20355;-89
2023/09/26 10:02:34;;;;;;;;;;;;;;;;;;6154809;23;19908;-88
2023/09/26 10:05:00;;;;;;;;;;;;;;;;;;6155387;23;19941;-90
2023/09/26 10:07:26;;;;;;;;;;;;;;;;;;6155133;23;19928;-90
2023/09/26 10:09:52;;;;;;;;;;;;;;;;;;6155419;23;19908;-89
2023/09/26 10:12:18;;;;;;;;;;;;;;;;;;6154806;23;19943;-89
2023/09/26 10:14:44;;;;;;;;;;;;;;;;;;6154413;23;20250;-90
2023/09/26 10:17:10;;;;;;;;;;;;;;;;;;6155991;23;19994;-94
2023/09/26 10:19:39;;;;;;;;;;;;;;;;;;6156836;23;19922;-93
2023/09/26 10:22:05;;;;;;;;;;;;;;;;;;6156730;23;19912;-93
2023/09/26 10:24:31;;;;;;;;;;;;;;;;;;6156454;23;19909;-94
2023/09/26 10:26:57;;;;;;;;;;;;;;;;;;6156258;23;19915;-94
2023/09/26 10:29:23;;;;;;;;;;;;;;;;;;6156835;23;20030;-91
2023/09/26 10:31:53;;;;;;;;;;;;;;;;;;6159460;23;19979;-94
2023/09/26 10:34:19;;;;;;;;;;;;;;;;;;6160276;23;19923;-96
2023/09/26 10:36:45;;;;;;;;;;;;;;;;;;6158459;23;19915;-93
2023/09/26 10:39:11;;;;;;;;;;;;;;;;;;6158839;23;19958;-94
2023/09/26 10:41:37;;;;;;;;;;;;;;;;;;6160971;23;19928;-94
2023/09/26 10:44:04;;;;;;;;;;;;;;;;;;6159646;23;20001;-94
2023/09/26 10:46:30;;;;;;;;;;;;;;;;;;6159872;23;19966;-92
2023/09/26 10:48:56;;;;;;;;;;;;;;;;;;6158423;23;19911;-94
2023/09/26 10:51:22;;;;;;;;;;;;;;;;;;6160450;23;19912;-93
2023/09/26 10:53:48;;;;;;;;;;;;;;;;;;6159926;23;19912;-92
2023/09/26 10:56:14;;;;;;;;;;;;;;;;;;6159207;23;20482;-93
2023/09/26 10:58:40;;;;;;;;;;;;;;;;;;6159802;23;19934;-93
2023/09/26 11:01:08;;;;;;;;;;;;;;;;;;6160303;23;19947;-94
2023/09/26 11:03:34;;;;;;;;;;;;;;;;;;6159736;23;20011;-93
2023/09/26 11:06:00;;;;;;;;;;;;;;;;;;6158881;23;19913;-92
2023/09/26 11:08:26;;;;;;;;;;;;;;;;;;6184642;23;20239;-90
2023/09/26 11:10:52;;;;;;;;;;;;;;;;;;6157382;23;19975;-90
2023/09/26 11:13:18;;;;;;;;;;;;;;;;;;6180322;23;19904;-90
2023/09/26 11:15:47;;;;;;;;;;;;;;;;;;6155079;23;20255;-91
2023/09/26 11:18:15;;;;;;;;;;;;;;;;;;6181589;23;20338;-90
2023/09/26 11:20:41;;;;;;;;;;;;;;;;;;6155468;23;19908;-90
2023/09/26 11:23:07;;;;;;;;;;;;;;;;;;6155709;23;20361;-90
2023/09/26 11:25:33;;;;;;;;;;;;;;;;;;6155479;23;19908;-90
2023/09/26 11:27:59;;;;;;;;;;;;;;;;;;6180891;23;19946;-90
2023/09/26 11:30:25;;;;;;;;;;;;;;;;;;6155083;23;19911;-90
2023/09/26 11:32:54;;;;;;;;;;;;;;;;;;6155611;23;19908;-90
2023/09/26 11:35:20;;;;;;;;;;;;;;;;;;6155466;23;19920;-90
2023/09/26 11:37:46;;;;;;;;;;;;;;;;;;6155333;23;19909;-90
2023/09/26 11:40:12;;;;;;;;;;;;;;;;;;6154955;23;19915;-90
2023/09/26 11:42:38;;;;;;;;;;;;;;;;;;6156520;23;19904;-90
2023/09/26 11:45:04;;;;;;;;;;;;;;;;;;6154062;23;19971;-90
2023/09/26 11:47:29;;;;;;;;;;;;;;;;;;6181442;23;19916;-90
2023/09/26 11:49:55;;;;;;;;;;;;;;;;;;6154922;23;19912;-89
2023/09/26 11:52:21;;;;;;;;;;;;;;;;;;6155180;23;20345;-90
2023/09/26 11:54:47;;;;;;;;;;;;;;;;;;6181206;23;19908;-90
2023/09/26 11:57:22;;;;;;;;;;;;;;;;;;6155576;23;19914;-90
2023/09/26 11:59:48;;;;;;;;;;;;;;;;;;6181971;22;19980;-90
2023/09/26 12:02:14;;;;;;;;;;;;;;;;;;6154781;23;19936;-89
2023/09/26 12:04:40;;;;;;;;;;;;;;;;;;6154961;23;19908;-91
2023/09/26 12:07:07;;;;;;;;;;;;;;;;;;6155638;23;19916;-89
2023/09/26 12:09:33;;;;;;;;;;;;;;;;;;6155208;23;19910;-90
2023/09/26 12:11:59;;;;;;;;;;;;;;;;;;6155113;23;19912;-91
2023/09/26 12:14:25;;;;;;;;;;;;;;;;;;6153868;23;20385;-90
2023/09/26 12:16:51;;;;;;;;;;;;;;;;;;6155439;23;19908;-90
2023/09/26 12:19:17;;;;;;;;;;;;;;;;;;6156418;23;20016;-94
2023/09/26 12:21:43;;;;;;;;;;;;;;;;;;6156203;23;20567;-93
2023/09/26 12:24:10;;;;;;;;;;;;;;;;;;6156834;23;20335;-93
2023/09/26 12:26:36;;;;;;;;;;;;;;;;;;6156694;23;19913;-94
2023/09/26 12:29:04;;;;;;;;;;;;;;;;;;6156790;23;19904;-94
2023/09/26 12:31:30;;;;;;;;;;;;;;;;;;6155962;23;19931;-94
2023/09/26 12:33:56;;;;;;;;;;;;;;;;;;6161370;23;19911;-93
2023/09/26 12:36:22;;;;;;;;;;;;;;;;;;6160821;23;19904;-94
2023/09/26 12:38:48;;;;;;;;;;;;;;;;;;6156722;23;20331;-90
2023/09/26 12:41:14;;;;;;;;;;;;;;;;;;6156718;23;19987;-90
2023/09/26 12:43:41;;;;;;;;;;;;;;;;;;6155804;23;20334;-89
2023/09/26 12:46:06;;;;;;;;;;;;;;;;;;6155890;23;19908;-89
2023/09/26 12:48:32;;;;;;;;;;;;;;;;;;6156860;23;19931;-90
2023/09/26 12:50:58;;;;;;;;;;;;;;;;;;6156533;23;19904;-90
2023/09/26 12:53:24;;;;;;;;;;;;;;;;;;6156490;23;19908;-90
2023/09/26 12:55:59;;;;;;;;;;;;;;;;;;6157353;23;19909;-89
2023/09/26 12:58:25;;;;;;;;;;;;;;;;;;6156662;23;19935;-90
2023/09/26 13:00:51;;;;;;;;;;;;;;;;;;6157396;23;20327;-89
2023/09/26 13:03:17;;;;;;;;;;;;;;;;;;6154941;23;19911;-90
2023/09/26 13:05:43;;;;;;;;;;;;;;;;;;6154457;23;19931;-89
2023/09/26 13:08:09;;;;;;;;;;;;;;;;;;6155794;23;20331;-89
2023/09/26 13:10:35;;;;;;;;;;;;;;;;;;6153684;23;19904;-89
2023/09/26 13:13:01;;;;;;;;;;;;;;;;;;6152725;23;19952;-89
2023/09/26 13:15:31;;;;;;;;;;;;;;;;;;6179416;23;19912;-89
2023/09/26 13:17:57;;;;;;;;;;;;;;;;;;6154219;23;19913;-90
2023/09/26 13:20:23;;;;;;;;;;;;;;;;;;6179609;23;20315;-90
2023/09/26 13:22:49;;;;;;;;;;;;;;;;;;6154351;23;19912;-89
2023/09/26 13:25:15;;;;;;;;;;;;;;;;;;6154339;23;20330;-90
2023/09/26 13:27:41;;;;;;;;;;;;;;;;;;6154199;23;19908;-92
2023/09/26 13:30:07;;;;;;;;;;;;;;;;;;6151040;23;19908;-93
2023/09/26 13:32:33;;;;;;;;;;;;;;;;;;6153932;23;20386;-95
2023/09/26 13:35:01;;;;;;;;;;;;;;;;;;6154764;23;19916;-92
2023/09/26 13:37:27;;;;;;;;;;;;;;;;;;6154097;23;19909;-90
2023/09/26 13:39:53;;;;;;;;;;;;;;;;;;6153365;23;19904;-90
2023/09/26 13:42:19;;;;;;;;;;;;;;;;;;6154069;23;20523;-89
2023/09/26 13:44:44;;;;;;;;;;;;;;;;;;6179400;23;19935;-90
2023/09/26 13:47:10;;;;;;;;;;;;;;;;;;6154242;23;19915;-93
2023/09/26 13:49:36;;;;;;;;;;;;;;;;;;6155747;23;20140;-93
2023/09/26 13:52:03;;;;;;;;;;;;;;;;;;6155426;23;19911;-93
2023/09/26 13:54:30;;;;;;;;;;;;;;;;;;6155090;23;19909;-92
2023/09/26 13:56:56;;;;;;;;;;;;;;;;;;6155002;23;19971;-94
2023/09/26 13:59:22;;;;;;;;;;;;;;;;;;6154725;23;20278;-94
2023/09/26 14:01:48;;;;;;;;;;;;;;;;;;6156329;23;19939;-93
2023/09/26 14:04:14;;;;;;;;;;;;;;;;;;6154561;23;19916;-93
2023/09/26 14:06:39;;;;;;;;;;;;;;;;;;6155121;23;19924;-94
2023/09/26 14:09:05;;;;;;;;;;;;;;;;;;6155043;23;19916;-93
2023/09/26 14:11:31;;;;;;;;;;;;;;;;;;6154914;23;19904;-94
2023/09/26 14:13:57;;;;;;;;;;;;;;;;;;6154138;23;20350;-93
2023/09/26 14:16:24;;;;;;;;;;;;;;;;;;6154205;23;19904;-93
2023/09/26 14:18:50;;;;;;;;;;;;;;;;;;6154564;23;20323;-93
2023/09/26 14:21:17;;;;;;;;;;;;;;;;;;6155207;23;19904;-93
2023/09/26 14:23:43;;;;;;;;;;;;;;;;;;6155360;23;20231;-92
2023/09/26 14:26:09;;;;;;;;;;;;;;;;;;6155773;23;19962;-91
2023/09/26 14:28:35;;;;;;;;;;;;;;;;;;6158351;23;20341;-94
2023/09/26 14:31:01;;;;;;;;;;;;;;;;;;6157564;23;19915;-92
2023/09/26 14:33:30;;;;;;;;;;;;;;;;;;6185275;23;19908;-92
2023/09/26 14:35:56;;;;;;;;;;;;;;;;;;6184660;23;19970;-93
2023/09/26 14:38:22;;;;;;;;;;;;;;;;;;6159495;23;20092;-93
2023/09/26 14:40:49;;;;;;;;;;;;;;;;;;6157747;23;19958;-93
2023/09/26 14:43:15;;;;;;;;;;;;;;;;;;6158293;23;19905;-93
2023/09/26 14:45:41;;;;;;;;;;;;;;;;;;6157749;23;19903;-94
2023/09/26 14:48:07;;;;;;;;;;;;;;;;;;6155447;23;19904;-88
2023/09/26 14:50:33;;;;;;;;;;;;;;;;;;6155969;23;20314;-88
2023/09/26 14:52:59;;;;;;;;;;;;;;;;;;6155069;23;19910;-89
2023/09/26 14:55:25;;;;;;;;;;;;;;;;;;6154283;23;19962;-89
2023/09/26 14:57:50;;;;;;;;;;;;;;;;;;6156841;23;19908;-91
2023/09/26 15:00:16;;;;;;;;;;;;;;;;;;6157972;23;19916;-91
2023/09/26 15:02:42;;;;;;;;;;;;;;;;;;6155389;23;19904;-91
2023/09/26 15:05:08;;;;;;;;;;;;;;;;;;6155240;23;20242;-89
2023/09/26 15:07:34;;;;;;;;;;;;;;;;;;6152585;23;20038;-91
2023/09/26 15:10:00;;;;;;;;;;;;;;;;;;6155144;23;20295;-91
2023/09/26 15:12:26;;;;;;;;;;;;;;;;;;6153411;23;19970;-90
2023/09/26 15:14:52;;;;;;;;;;;;;;;;;;6153631;23;19908;-91
2023/09/26 15:17:18;;;;;;;;;;;;;;;;;;6154576;23;19911;-91
2023/09/26 15:19:50;;;;;;;;;;;;;;;;;;6153913;23;20305;-90
2023/09/26 15:22:16;;;;;;;;;;;;;;;;;;6154106;23;19915;-91
2023/09/26 15:24:42;;;;;;;;;;;;;;;;;;6155156;23;19943;-90
2023/09/26 15:27:08;;;;;;;;;;;;;;;;;;6155772;23;20445;-90
2023/09/26 15:29:34;;;;;;;;;;;;;;;;;;6181033;23;19958;-91
2023/09/26 15:32:00;;;;;;;;;;;;;;;;;;6154937;23;19959;-90
2023/09/26 15:34:26;;;;;;;;;;;;;;;;;;6180424;23;20342;-91
2023/09/26 15:36:52;;;;;;;;;;;;;;;;;;6153785;23;19912;-90
2023/09/26 15:39:19;;;;;;;;;;;;;;;;;;6153307;23;19909;-90
2023/09/26 15:41:45;;;;;;;;;;;;;;;;;;6153984;23;19923;-90
2023/09/26 15:44:17;;;;;;;;;;;;;;;;;;6181698;23;19908;-90
2023/09/26 15:46:43;;;;;;;;;;;;;;;;;;6153162;23;19923;-90
2023/09/26 15:49:09;;;;;;;;;;;;;;;;;;6155162;23;19908;-90
2023/09/26 15:51:35;;;;;;;;;;;;;;;;;;6155161;23;20293;-90
2023/09/26 15:54:01;;;;;;;;;;;;;;;;;;6153901;23;19924;-91
2023/09/26 15:56:27;;;;;;;;;;;;;;;;;;6153979;23;19904;-90
2023/09/26 15:58:53;;;;;;;;;;;;;;;;;;6156059;23;19916;-90
2023/09/26 16:01:19;;;;;;;;;;;;;;;;;;6181066;22;19955;-90
2023/09/26 16:03:45;;;;;;;;;;;;;;;;;;6154250;23;19916;-90
2023/09/26 16:06:11;;;;;;;;;;;;;;;;;;6153916;23;19920;-90
2023/09/26 16:08:37;;;;;;;;;;;;;;;;;;6153242;23;19959;-89
2023/09/26 16:11:03;;;;;;;;;;;;;;;;;;6151250;23;19904;-89
2023/09/26 16:13:30;;;;;;;;;;;;;;;;;;6152364;23;19965;-89
2023/09/26 16:15:56;;;;;;;;;;;;;;;;;;6151551;23;19904;-89
2023/09/26 16:18:22;;;;;;;;;;;;;;;;;;6152451;23;19909;-89
2023/09/26 16:20:49;;;;;;;;;;;;;;;;;;6153129;23;20145;-89
2023/09/26 16:23:15;;;;;;;;;;;;;;;;;;6151692;23;20306;-89
2023/09/26 16:25:40;;;;;;;;;;;;;;;;;;6152752;23;20290;-89
2023/09/26 16:28:06;;;;;;;;;;;;;;;;;;6153010;23;19986;-89
2023/09/26 16:30:32;;;;;;;;;;;;;;;;;;6154194;23;19905;-88
2023/09/26 16:32:59;;;;;;;;;;;;;;;;;;6153675;23;19915;-89
2023/09/26 16:35:25;;;;;;;;;;;;;;;;;;6153610;23;19900;-89
2023/09/26 16:37:51;;;;;;;;;;;;;;;;;;6152783;23;19908;-89
2023/09/26 16:40:17;;;;;;;;;;;;;;;;;;6152917;23;19908;-90